createdAt,value
2024-01-11T00:00:26.632Z,81
2024-01-11T00:00:54.689Z,81
2024-01-11T00:01:25.865Z,81
2024-01-11T00:01:58.499Z,81
2024-01-11T00:02:29.770Z,81
2024-01-11T00:03:02.836Z,81
2024-01-11T00:03:33.503Z,81
2024-01-11T00:04:06.454Z,81
2024-01-11T00:04:37.760Z,81
2024-01-11T00:05:11.028Z,81
2024-01-11T00:05:41.709Z,81
2024-01-11T00:05:58.321Z,81
2024-01-11T00:06:29.666Z,81
2024-01-11T00:07:01.847Z,81
2024-01-11T00:07:33.668Z,81
2024-01-11T00:08:05.584Z,81
2024-01-11T00:08:38.605Z,81
2024-01-11T00:09:09.595Z,81
2024-01-11T00:09:42.969Z,81
2024-01-11T00:10:13.953Z,82
2024-01-11T00:10:46.329Z,82
2024-01-11T00:11:18.788Z,82
2024-01-11T00:11:50.593Z,82
2024-01-11T00:12:21.616Z,83
2024-01-11T00:12:54.600Z,83
2024-01-11T00:13:25.943Z,83
2024-01-11T00:13:58.675Z,83
2024-01-11T00:14:29.787Z,82
2024-01-11T00:15:04.558Z,82
2024-01-11T00:15:33.759Z,82
2024-01-11T00:16:06.578Z,82
2024-01-11T00:16:37.713Z,82
2024-01-11T00:17:10.737Z,82
2024-01-11T00:17:41.793Z,82
2024-01-11T00:17:57.970Z,82
2024-01-11T00:18:29.735Z,82
2024-01-11T00:19:01.934Z,82
2024-01-11T00:19:33.669Z,82
2024-01-11T00:20:05.836Z,82
2024-01-11T00:20:38.878Z,82
2024-01-11T00:21:09.711Z,82
2024-01-11T00:21:42.677Z,82
2024-01-11T00:22:13.638Z,82
2024-01-11T00:22:46.594Z,82
2024-01-11T00:23:17.875Z,82
2024-01-11T00:23:50.386Z,82
2024-01-11T00:24:21.659Z,82
2024-01-11T00:24:54.628Z,82
2024-01-11T00:25:26.002Z,82
2024-01-11T00:25:58.457Z,82
2024-01-11T00:26:29.705Z,82
2024-01-11T00:27:02.531Z,82
2024-01-11T00:27:33.569Z,82
2024-01-11T00:28:06.673Z,82
2024-01-11T00:28:37.755Z,82
2024-01-11T00:29:10.312Z,82
2024-01-11T00:29:41.801Z,82
2024-01-11T00:30:16.078Z,82
2024-01-11T00:30:45.897Z,82
2024-01-11T00:31:18.373Z,82
2024-01-11T00:31:49.669Z,82
2024-01-11T00:32:22.781Z,82
2024-01-11T00:32:53.770Z,82
2024-01-11T00:33:29.253Z,82
2024-01-11T00:33:57.867Z,82
2024-01-11T00:34:30.623Z,82
2024-01-11T00:35:02.321Z,82
2024-01-11T00:35:34.543Z,82
2024-01-11T00:36:05.745Z,82
2024-01-11T00:36:38.634Z,82
2024-01-11T00:37:09.673Z,82
2024-01-11T00:37:42.537Z,82
2024-01-11T00:38:13.799Z,82
2024-01-11T00:38:46.360Z,82
2024-01-11T00:39:17.725Z,82
2024-01-11T00:39:50.643Z,82
2024-01-11T00:40:21.964Z,82
2024-01-11T00:40:54.442Z,82
2024-01-11T00:41:25.766Z,82
2024-01-11T00:41:58.611Z,82
2024-01-11T00:42:29.604Z,82
2024-01-11T00:43:04.360Z,82
2024-01-11T00:43:33.708Z,82
2024-01-11T00:44:06.383Z,82
2024-01-11T00:44:37.689Z,82
2024-01-11T00:45:11.997Z,82
2024-01-11T00:45:41.642Z,82
2024-01-11T00:46:19.088Z,82
2024-01-11T00:46:45.653Z,82
2024-01-11T00:47:17.816Z,82
2024-01-11T00:47:49.702Z,82
2024-01-11T00:48:21.744Z,82
2024-01-11T00:48:56.756Z,82
2024-01-11T00:49:25.935Z,82
2024-01-11T00:49:58.536Z,82
2024-01-11T00:50:30.065Z,82
2024-01-11T00:51:02.469Z,82
2024-01-11T00:51:33.614Z,82
2024-01-11T00:52:07.311Z,82
2024-01-11T00:52:37.715Z,82
2024-01-11T00:53:10.312Z,82
2024-01-11T00:53:41.662Z,82
2024-01-11T00:54:14.461Z,82
2024-01-11T00:54:45.738Z,82
2024-01-11T00:55:18.924Z,82
2024-01-11T00:55:49.644Z,82
2024-01-11T00:56:22.552Z,82
2024-01-11T00:56:53.705Z,82
2024-01-11T00:57:26.809Z,82
2024-01-11T00:57:57.673Z,82
2024-01-11T00:58:30.440Z,82
2024-01-11T00:59:01.920Z,82
2024-01-11T00:59:34.665Z,82
2024-01-11T01:00:07.556Z,82
2024-01-11T01:00:38.438Z,82
2024-01-11T01:01:09.611Z,82
2024-01-11T01:01:42.487Z,82
2024-01-11T01:02:13.614Z,82
2024-01-11T01:02:29.797Z,82
2024-01-11T01:03:01.742Z,82
2024-01-11T01:03:33.629Z,82
2024-01-11T01:04:06.359Z,82
2024-01-11T01:04:37.735Z,82
2024-01-11T01:05:10.754Z,82
2024-01-11T01:05:41.722Z,82
2024-01-11T01:06:14.607Z,82
2024-01-11T01:06:45.746Z,82
2024-01-11T01:07:18.392Z,82
2024-01-11T01:07:49.699Z,82
2024-01-11T01:08:22.708Z,82
2024-01-11T01:08:53.550Z,82
2024-01-11T01:09:26.616Z,82
2024-01-11T01:09:57.663Z,82
2024-01-11T01:10:30.898Z,82
2024-01-11T01:11:01.749Z,82
2024-01-11T01:11:34.583Z,82
2024-01-11T01:12:05.757Z,82
2024-01-11T01:12:38.785Z,82
2024-01-11T01:13:09.610Z,82
2024-01-11T01:13:42.626Z,82
2024-01-11T01:14:13.827Z,82
2024-01-11T01:14:46.226Z,82
2024-01-11T01:15:19.073Z,82
2024-01-11T01:15:50.729Z,82
2024-01-11T01:16:21.596Z,82
2024-01-11T01:16:57.330Z,82
2024-01-11T01:17:25.840Z,82
2024-01-11T01:17:59.137Z,82
2024-01-11T01:18:29.680Z,82
2024-01-11T01:19:02.825Z,82
2024-01-11T01:19:33.797Z,82
2024-01-11T01:20:06.850Z,82
2024-01-11T01:20:37.841Z,82
2024-01-11T01:21:10.632Z,82
2024-01-11T01:21:41.509Z,82
2024-01-11T01:22:14.578Z,82
2024-01-11T01:22:45.640Z,82
2024-01-11T01:23:18.789Z,82
2024-01-11T01:23:49.640Z,82
2024-01-11T01:24:22.458Z,82
2024-01-11T01:24:53.746Z,82
2024-01-11T01:25:27.629Z,82
2024-01-11T01:25:57.709Z,82
2024-01-11T01:26:30.490Z,82
2024-01-11T01:27:01.617Z,82
2024-01-11T01:27:34.685Z,82
2024-01-11T01:28:05.661Z,82
2024-01-11T01:28:41.512Z,82
2024-01-11T01:29:09.627Z,82
2024-01-11T01:29:42.581Z,82
2024-01-11T01:30:14.999Z,82
2024-01-11T01:30:50.792Z,82
2024-01-11T01:31:17.636Z,82
2024-01-11T01:31:49.671Z,82
2024-01-11T01:32:21.811Z,82
2024-01-11T01:32:53.747Z,82
2024-01-11T01:33:26.591Z,82
2024-01-11T01:33:57.914Z,82
2024-01-11T01:34:30.752Z,82
2024-01-11T01:35:02.413Z,82
2024-01-11T01:35:34.826Z,82
2024-01-11T01:36:05.795Z,82
2024-01-11T01:36:38.572Z,82
2024-01-11T01:37:09.631Z,82
2024-01-11T01:37:44.604Z,82
2024-01-11T01:38:13.616Z,82
2024-01-11T01:38:46.322Z,83
2024-01-11T01:39:17.712Z,83
2024-01-11T01:39:50.595Z,83
2024-01-11T01:40:22.028Z,83
2024-01-11T01:40:54.633Z,83
2024-01-11T01:41:25.729Z,83
2024-01-11T01:41:58.339Z,83
2024-01-11T01:42:29.666Z,83
2024-01-11T01:43:02.836Z,83
2024-01-11T01:43:33.804Z,83
2024-01-11T01:44:09.406Z,83
2024-01-11T01:44:37.861Z,83
2024-01-11T01:45:11.936Z,83
2024-01-11T01:45:41.777Z,83
2024-01-11T01:46:14.411Z,83
2024-01-11T01:46:45.710Z,83
2024-01-11T01:47:18.936Z,83
2024-01-11T01:47:49.743Z,83
2024-01-11T01:48:38.016Z,83
2024-01-11T01:49:09.741Z,83
2024-01-11T01:49:41.780Z,83
2024-01-11T01:50:14.142Z,83
2024-01-11T01:50:45.789Z,83
2024-01-11T01:51:17.766Z,83
2024-01-11T01:51:49.645Z,83
2024-01-11T01:52:22.671Z,83
2024-01-11T01:52:53.799Z,83
2024-01-11T01:53:26.601Z,83
2024-01-11T01:53:57.671Z,83
2024-01-11T01:54:30.444Z,83
2024-01-11T01:55:02.385Z,83
2024-01-11T01:55:35.583Z,83
2024-01-11T01:56:05.762Z,83
2024-01-11T01:56:38.950Z,83
2024-01-11T01:57:09.765Z,83
2024-01-11T01:57:42.750Z,83
2024-01-11T01:58:13.618Z,83
2024-01-11T01:58:46.391Z,83
2024-01-11T01:59:17.671Z,83
2024-01-11T01:59:50.511Z,84
2024-01-11T02:00:23.808Z,84
2024-01-11T02:00:55.043Z,84
2024-01-11T02:01:25.824Z,84
2024-01-11T02:01:58.510Z,84
2024-01-11T02:02:29.789Z,84
2024-01-11T02:03:02.920Z,84
2024-01-11T02:03:33.736Z,84
2024-01-11T02:04:06.432Z,84
2024-01-11T02:04:37.787Z,84
2024-01-11T02:05:10.924Z,84
2024-01-11T02:05:41.790Z,84
2024-01-11T02:06:14.584Z,83
2024-01-11T02:06:45.639Z,83
2024-01-11T02:07:18.373Z,84
2024-01-11T02:07:49.636Z,84
2024-01-11T02:08:22.597Z,84
2024-01-11T02:08:53.599Z,84
2024-01-11T02:09:26.590Z,84
2024-01-11T02:09:57.777Z,84
2024-01-11T02:10:30.757Z,84
2024-01-11T02:11:01.736Z,84
2024-01-11T02:11:34.592Z,83
2024-01-11T02:12:05.806Z,83
2024-01-11T02:12:38.510Z,83
2024-01-11T02:13:10.930Z,83
2024-01-11T02:13:42.700Z,84
2024-01-11T02:14:13.629Z,84
2024-01-11T02:14:46.469Z,84
2024-01-11T02:15:18.971Z,84
2024-01-11T02:15:50.670Z,84
2024-01-11T02:16:21.616Z,84
2024-01-11T02:16:54.688Z,84
2024-01-11T02:17:25.810Z,84
2024-01-11T02:17:58.531Z,84
2024-01-11T02:18:29.792Z,84
2024-01-11T02:19:02.618Z,84
2024-01-11T02:19:33.618Z,84
2024-01-11T02:20:06.934Z,84
2024-01-11T02:20:37.803Z,84
2024-01-11T02:21:10.726Z,84
2024-01-11T02:21:41.706Z,84
2024-01-11T02:21:57.885Z,84
2024-01-11T02:22:29.739Z,84
2024-01-11T02:23:01.748Z,84
2024-01-11T02:23:33.921Z,84
2024-01-11T02:24:05.901Z,84
2024-01-11T02:24:37.679Z,84
2024-01-11T02:25:10.048Z,84
2024-01-11T02:25:41.819Z,84
2024-01-11T02:26:13.678Z,84
2024-01-11T02:26:46.486Z,84
2024-01-11T02:27:17.744Z,84
2024-01-11T02:27:50.716Z,84
2024-01-11T02:28:21.661Z,84
2024-01-11T02:28:54.731Z,84
2024-01-11T02:29:25.885Z,84
2024-01-11T02:29:58.511Z,84
2024-01-11T02:30:30.965Z,84
2024-01-11T02:31:02.654Z,84
2024-01-11T02:31:33.589Z,84
2024-01-11T02:32:06.874Z,84
2024-01-11T02:32:37.869Z,84
2024-01-11T02:33:10.903Z,84
2024-01-11T02:33:41.794Z,84
2024-01-11T02:33:57.999Z,84
2024-01-11T02:34:29.765Z,84
2024-01-11T02:35:02.244Z,84
2024-01-11T02:35:33.785Z,84
2024-01-11T02:36:05.829Z,84
2024-01-11T02:36:37.650Z,84
2024-01-11T02:37:09.758Z,85
2024-01-11T02:37:41.741Z,85
2024-01-11T02:38:13.629Z,85
2024-01-11T02:38:30.836Z,85
2024-01-11T02:39:01.834Z,85
2024-01-11T02:39:35.402Z,85
2024-01-11T02:40:05.998Z,85
2024-01-11T02:40:38.618Z,85
2024-01-11T02:41:09.737Z,85
2024-01-11T02:41:42.481Z,85
2024-01-11T02:42:13.722Z,85
2024-01-11T02:42:46.839Z,85
2024-01-11T02:43:17.635Z,85
2024-01-11T02:43:50.858Z,85
2024-01-11T02:44:21.847Z,85
2024-01-11T02:44:54.440Z,85
2024-01-11T02:45:26.977Z,85
2024-01-11T02:45:58.770Z,85
2024-01-11T02:46:29.621Z,85
2024-01-11T02:47:02.636Z,85
2024-01-11T02:47:34.066Z,85
2024-01-11T02:48:06.862Z,85
2024-01-11T02:48:37.839Z,85
2024-01-11T02:49:10.645Z,85
2024-01-11T02:49:41.755Z,85
2024-01-11T02:50:14.776Z,85
2024-01-11T02:50:45.714Z,85
2024-01-11T02:51:18.897Z,85
2024-01-11T02:51:49.803Z,85
2024-01-11T02:52:22.599Z,85
2024-01-11T02:52:53.735Z,85
2024-01-11T02:53:26.842Z,85
2024-01-11T02:53:57.781Z,85
2024-01-11T02:54:30.568Z,85
2024-01-11T02:55:02.285Z,85
2024-01-11T02:55:35.467Z,85
2024-01-11T02:56:05.738Z,85
2024-01-11T02:56:38.560Z,85
2024-01-11T02:57:09.776Z,85
2024-01-11T02:57:42.671Z,85
2024-01-11T02:58:13.728Z,85
2024-01-11T02:58:46.476Z,85
2024-01-11T02:59:17.588Z,85
2024-01-11T02:59:50.498Z,85
2024-01-11T03:00:23.108Z,85
2024-01-11T03:00:54.774Z,85
2024-01-11T03:01:25.646Z,85
2024-01-11T03:01:58.550Z,85
2024-01-11T03:02:29.860Z,85
2024-01-11T03:03:02.729Z,85
2024-01-11T03:03:33.779Z,85
2024-01-11T03:04:06.665Z,85
2024-01-11T03:04:37.785Z,85
2024-01-11T03:05:10.723Z,85
2024-01-11T03:05:41.895Z,85
2024-01-11T03:06:14.646Z,85
2024-01-11T03:06:45.637Z,85
2024-01-11T03:07:18.608Z,85
2024-01-11T03:07:49.722Z,85
2024-01-11T03:08:22.833Z,85
2024-01-11T03:08:53.614Z,85
2024-01-11T03:09:26.640Z,85
2024-01-11T03:09:57.880Z,85
2024-01-11T03:10:30.815Z,85
2024-01-11T03:11:01.728Z,85
2024-01-11T03:11:34.956Z,85
2024-01-11T03:12:05.758Z,85
2024-01-11T03:12:38.629Z,86
2024-01-11T03:13:09.721Z,86
2024-01-11T03:13:42.705Z,86
2024-01-11T03:14:13.626Z,86
2024-01-11T03:14:46.477Z,86
2024-01-11T03:15:19.117Z,86
2024-01-11T03:15:50.940Z,85
2024-01-11T03:16:21.764Z,85
2024-01-11T03:16:54.668Z,85
2024-01-11T03:17:25.944Z,85
2024-01-11T03:17:58.962Z,85
2024-01-11T03:18:29.689Z,85
2024-01-11T03:19:02.793Z,85
2024-01-11T03:19:33.730Z,85
2024-01-11T03:20:07.031Z,85
2024-01-11T03:20:37.788Z,85
2024-01-11T03:21:10.775Z,85
2024-01-11T03:21:41.647Z,85
2024-01-11T03:21:57.856Z,85
2024-01-11T03:22:29.660Z,85
2024-01-11T03:23:01.714Z,85
2024-01-11T03:23:33.916Z,85
2024-01-11T03:24:05.595Z,86
2024-01-11T03:24:40.204Z,86
2024-01-11T03:25:10.171Z,85
2024-01-11T03:25:42.587Z,85
2024-01-11T03:26:13.831Z,86
2024-01-11T03:26:46.642Z,86
2024-01-11T03:27:17.800Z,86
2024-01-11T03:27:50.713Z,86
2024-01-11T03:28:21.729Z,86
2024-01-11T03:28:54.763Z,86
2024-01-11T03:29:25.727Z,85
2024-01-11T03:29:58.715Z,85
2024-01-11T03:30:31.148Z,85
2024-01-11T03:31:02.819Z,85
2024-01-11T03:31:33.720Z,85
2024-01-11T03:32:06.806Z,85
2024-01-11T03:32:37.988Z,85
2024-01-11T03:33:10.720Z,85
2024-01-11T03:33:41.764Z,85
2024-01-11T03:34:14.644Z,85
2024-01-11T03:34:45.919Z,86
2024-01-11T03:35:20.837Z,86
2024-01-11T03:35:49.791Z,86
2024-01-11T03:36:22.907Z,86
2024-01-11T03:36:53.668Z,86
2024-01-11T03:37:26.828Z,86
2024-01-11T03:37:57.814Z,86
2024-01-11T03:38:30.863Z,86
2024-01-11T03:39:01.796Z,86
2024-01-11T03:39:34.615Z,86
2024-01-11T03:40:06.062Z,86
2024-01-11T03:40:38.662Z,86
2024-01-11T03:41:09.724Z,86
2024-01-11T03:41:42.605Z,86
2024-01-11T03:42:13.624Z,86
2024-01-11T03:42:46.573Z,86
2024-01-11T03:43:17.743Z,86
2024-01-11T03:43:51.011Z,86
2024-01-11T03:44:21.650Z,86
2024-01-11T03:44:54.661Z,86
2024-01-11T03:45:27.126Z,86
2024-01-11T03:46:08.311Z,86
2024-01-11T03:46:29.648Z,86
2024-01-11T03:47:01.747Z,86
2024-01-11T03:47:34.919Z,86
2024-01-11T03:48:05.832Z,86
2024-01-11T03:48:39.561Z,86
2024-01-11T03:51:49.831Z,86
2024-01-11T03:52:22.662Z,86
2024-01-11T03:52:53.729Z,86
2024-01-11T03:53:26.590Z,86
2024-01-11T03:53:57.747Z,86
2024-01-11T03:54:45.854Z,86
2024-01-11T03:55:18.442Z,86
2024-01-11T03:55:49.723Z,86
2024-01-11T03:56:21.728Z,86
2024-01-11T03:56:53.713Z,86
2024-01-11T03:57:25.779Z,86
2024-01-11T03:57:57.578Z,86
2024-01-11T03:58:32.498Z,86
2024-01-11T03:59:01.895Z,86
2024-01-11T03:59:34.750Z,86
2024-01-11T04:00:10.801Z,86
2024-01-11T04:00:39.815Z,87
2024-01-11T04:01:09.851Z,87
2024-01-11T04:01:42.433Z,87
2024-01-11T04:02:13.791Z,87
2024-01-11T04:02:46.684Z,87
2024-01-11T04:03:17.880Z,87
2024-01-11T04:03:50.649Z,87
2024-01-11T04:04:21.797Z,87
2024-01-11T04:04:54.618Z,87
2024-01-11T04:05:26.119Z,87
2024-01-11T04:05:58.741Z,87
2024-01-11T04:06:29.828Z,87
2024-01-11T04:07:02.603Z,87
2024-01-11T04:07:33.705Z,87
2024-01-11T04:08:06.637Z,87
2024-01-11T04:08:37.984Z,87
2024-01-11T04:09:10.558Z,87
2024-01-11T04:09:41.706Z,87
2024-01-11T04:10:14.984Z,87
2024-01-11T04:10:45.580Z,87
2024-01-11T04:11:19.398Z,87
2024-01-11T04:11:49.724Z,87
2024-01-11T04:12:22.816Z,87
2024-01-11T04:12:53.677Z,87
2024-01-11T04:13:32.034Z,87
2024-01-11T04:13:57.921Z,87
2024-01-11T04:14:29.651Z,87
2024-01-11T04:15:04.481Z,87
2024-01-11T04:15:33.858Z,87
2024-01-11T04:16:06.860Z,87
2024-01-11T04:16:37.661Z,87
2024-01-11T04:17:10.818Z,87
2024-01-11T04:17:42.074Z,87
2024-01-11T04:18:14.659Z,87
2024-01-11T04:18:45.720Z,87
2024-01-11T04:19:22.476Z,87
2024-01-11T04:19:49.854Z,87
2024-01-11T04:20:23.044Z,87
2024-01-11T04:20:53.796Z,87
2024-01-11T04:21:26.735Z,87
2024-01-11T04:21:57.603Z,87
2024-01-11T04:22:30.699Z,87
2024-01-11T04:23:01.822Z,87
2024-01-11T04:23:34.826Z,87
2024-01-11T04:24:05.686Z,87
2024-01-11T04:24:38.594Z,87
2024-01-11T04:25:10.046Z,87
2024-01-11T04:25:42.524Z,87
2024-01-11T04:26:13.724Z,88
2024-01-11T04:26:46.575Z,88
2024-01-11T04:27:17.799Z,88
2024-01-11T04:27:50.702Z,88
2024-01-11T04:28:21.762Z,88
2024-01-11T04:28:57.880Z,88
2024-01-11T04:29:25.691Z,88
2024-01-11T04:29:58.613Z,88
2024-01-11T04:30:31.220Z,88
2024-01-11T04:31:02.655Z,88
2024-01-11T04:31:33.707Z,87
2024-01-11T04:32:06.809Z,87
2024-01-11T04:32:38.000Z,87
2024-01-11T04:33:10.482Z,87
2024-01-11T04:33:41.853Z,87
2024-01-11T04:34:20.521Z,87
2024-01-11T04:34:45.827Z,87
2024-01-11T04:35:18.344Z,87
2024-01-11T04:35:49.764Z,87
2024-01-11T04:36:21.991Z,87
2024-01-11T04:36:53.683Z,87
2024-01-11T04:37:25.705Z,87
2024-01-11T04:37:57.899Z,87
2024-01-11T04:38:29.691Z,87
2024-01-11T04:39:02.673Z,87
2024-01-11T04:39:33.729Z,87
2024-01-11T04:40:07.820Z,87
2024-01-11T04:40:37.746Z,87
2024-01-11T04:41:10.675Z,87
2024-01-11T04:41:41.826Z,87
2024-01-11T04:41:57.893Z,87
2024-01-11T04:42:29.877Z,87
2024-01-11T04:43:01.715Z,87
2024-01-11T04:43:35.567Z,87
2024-01-11T04:44:05.837Z,87
2024-01-11T04:44:44.157Z,87
2024-01-11T04:45:11.111Z,87
2024-01-11T04:45:41.957Z,87
2024-01-11T04:46:13.573Z,87
2024-01-11T04:46:45.641Z,87
2024-01-11T04:47:18.450Z,87
2024-01-11T04:47:49.860Z,87
2024-01-11T04:48:22.729Z,87
2024-01-11T04:48:53.899Z,87
2024-01-11T04:49:26.647Z,88
2024-01-11T04:49:57.843Z,88
2024-01-11T04:50:30.828Z,88
2024-01-11T04:51:01.808Z,88
2024-01-11T04:51:34.500Z,88
2024-01-11T04:52:05.798Z,88
2024-01-11T04:52:44.007Z,88
2024-01-11T04:53:09.754Z,88
2024-01-11T04:53:41.856Z,88
2024-01-11T04:54:14.410Z,88
2024-01-11T04:54:45.699Z,88
2024-01-11T04:55:18.965Z,88
2024-01-11T04:55:49.656Z,88
2024-01-11T04:56:23.037Z,88
2024-01-11T04:56:53.865Z,88
2024-01-11T04:57:26.862Z,88
2024-01-11T04:57:57.724Z,88
2024-01-11T04:58:31.614Z,88
2024-01-11T04:59:01.910Z,88
2024-01-11T04:59:34.605Z,88
2024-01-11T05:00:07.641Z,88
2024-01-11T05:00:39.019Z,88
2024-01-11T05:01:09.731Z,88
2024-01-11T05:01:42.607Z,88
2024-01-11T05:02:13.880Z,88
2024-01-11T05:02:46.924Z,88
2024-01-11T05:03:17.758Z,88
2024-01-11T05:03:50.559Z,88
2024-01-11T05:04:21.792Z,88
2024-01-11T05:04:54.558Z,88
2024-01-11T05:05:26.441Z,88
2024-01-11T05:05:58.713Z,88
2024-01-11T05:06:29.886Z,88
2024-01-11T05:07:02.681Z,88
2024-01-11T05:07:33.679Z,88
2024-01-11T05:08:06.866Z,88
2024-01-11T05:08:37.682Z,88
2024-01-11T05:09:10.626Z,88
2024-01-11T05:09:41.773Z,88
2024-01-11T05:10:15.081Z,88
2024-01-11T05:10:45.629Z,88
2024-01-11T05:11:18.585Z,88
2024-01-11T05:11:49.825Z,88
2024-01-11T05:12:22.562Z,88
2024-01-11T05:12:53.786Z,88
2024-01-11T05:13:26.693Z,88
2024-01-11T05:13:57.912Z,88
2024-01-11T05:14:30.482Z,88
2024-01-11T05:15:03.341Z,88
2024-01-11T05:15:34.800Z,88
2024-01-11T05:16:05.709Z,88
2024-01-11T05:16:38.497Z,88
2024-01-11T05:17:09.826Z,88
2024-01-11T05:17:42.921Z,88
2024-01-11T05:18:13.721Z,88
2024-01-11T05:18:46.688Z,88
2024-01-11T05:19:17.909Z,88
2024-01-11T05:19:50.300Z,88
2024-01-11T05:20:22.122Z,88
2024-01-11T05:20:54.573Z,88
2024-01-11T05:21:25.909Z,88
2024-01-11T05:21:58.683Z,88
2024-01-11T05:22:29.822Z,88
2024-01-11T05:23:02.834Z,88
2024-01-11T05:23:33.823Z,88
2024-01-11T05:24:12.626Z,88
2024-01-11T05:24:37.740Z,88
2024-01-11T05:25:09.911Z,88
2024-01-11T05:25:42.811Z,88
2024-01-11T05:26:13.774Z,88
2024-01-11T05:26:46.871Z,88
2024-01-11T05:27:17.741Z,88
2024-01-11T05:27:50.973Z,88
2024-01-11T05:28:21.841Z,88
2024-01-11T05:28:54.696Z,88
2024-01-11T05:29:25.960Z,88
2024-01-11T05:29:59.671Z,88
2024-01-11T05:30:31.542Z,88
2024-01-11T05:31:02.785Z,88
2024-01-11T05:31:33.923Z,88
2024-01-11T05:32:06.855Z,88
2024-01-11T05:32:38.104Z,88
2024-01-11T05:33:10.729Z,88
2024-01-11T05:33:41.998Z,88
2024-01-11T05:34:14.854Z,88
2024-01-11T05:34:45.637Z,88
2024-01-11T05:35:18.833Z,88
2024-01-11T05:35:49.783Z,88
2024-01-11T05:36:22.650Z,89
2024-01-11T05:36:53.674Z,89
2024-01-11T05:37:26.718Z,89
2024-01-11T05:37:57.795Z,89
2024-01-11T05:38:30.780Z,89
2024-01-11T05:39:01.783Z,89
2024-01-11T05:39:34.591Z,89
2024-01-11T05:40:05.904Z,89
2024-01-11T05:40:38.495Z,89
2024-01-11T05:41:10.088Z,89
2024-01-11T05:41:42.659Z,88
2024-01-11T05:42:13.622Z,88
2024-01-11T05:42:46.885Z,88
2024-01-11T05:43:17.690Z,88
2024-01-11T05:43:50.705Z,88
2024-01-11T05:44:21.822Z,88
2024-01-11T05:44:54.573Z,89
2024-01-11T05:45:35.831Z,89
2024-01-11T05:45:58.848Z,89
2024-01-11T05:46:32.390Z,89
2024-01-11T05:47:02.602Z,89
2024-01-11T05:47:33.793Z,89
2024-01-11T05:48:06.812Z,89
2024-01-11T05:48:37.949Z,89
2024-01-11T05:49:10.830Z,89
2024-01-11T05:49:41.686Z,89
2024-01-11T05:50:14.968Z,89
2024-01-11T05:50:45.821Z,89
2024-01-11T05:51:18.506Z,89
2024-01-11T05:51:49.647Z,89
2024-01-11T05:52:22.841Z,90
2024-01-11T05:52:53.829Z,90
2024-01-11T05:53:26.585Z,90
2024-01-11T05:53:57.766Z,90
2024-01-11T05:54:30.847Z,90
2024-01-11T05:55:02.392Z,90
2024-01-11T05:55:34.632Z,90
2024-01-11T05:56:05.772Z,90
2024-01-11T05:56:38.742Z,90
2024-01-11T05:57:09.709Z,90
2024-01-11T05:57:48.263Z,90
2024-01-11T05:58:13.804Z,90
2024-01-11T05:58:45.747Z,90
2024-01-11T05:59:18.738Z,90
2024-01-11T05:59:49.770Z,90
2024-01-11T06:00:25.073Z,90
2024-01-11T06:00:53.856Z,90
2024-01-11T06:01:26.634Z,90
2024-01-11T06:01:57.909Z,90
2024-01-11T06:02:30.798Z,90
2024-01-11T06:03:01.772Z,90
2024-01-11T06:03:34.585Z,90
2024-01-11T06:04:05.817Z,90
2024-01-11T06:04:38.492Z,90
2024-01-11T06:05:10.060Z,90
2024-01-11T06:05:42.922Z,90
2024-01-11T06:06:13.696Z,90
2024-01-11T06:06:52.158Z,90
2024-01-11T06:07:17.810Z,90
2024-01-11T06:07:49.892Z,90
2024-01-11T06:08:21.756Z,90
2024-01-11T06:08:53.812Z,90
2024-01-11T06:09:25.848Z,90
2024-01-11T06:09:57.668Z,90
2024-01-11T06:10:30.903Z,89
2024-01-11T06:11:02.054Z,89
2024-01-11T06:11:34.679Z,89
2024-01-11T06:12:05.844Z,89
2024-01-11T06:12:38.764Z,89
2024-01-11T06:13:09.822Z,89
2024-01-11T06:13:42.338Z,89
2024-01-11T06:14:13.807Z,89
2024-01-11T06:14:49.620Z,89
2024-01-11T06:15:18.889Z,89
2024-01-11T06:15:50.741Z,89
2024-01-11T06:16:21.868Z,89
2024-01-11T06:16:54.354Z,89
2024-01-11T06:17:25.778Z,89
2024-01-11T06:17:58.746Z,89
2024-01-11T06:18:30.010Z,89
2024-01-11T06:19:02.626Z,89
2024-01-11T06:19:33.853Z,89
2024-01-11T06:20:07.067Z,89
2024-01-11T06:20:37.731Z,89
2024-01-11T06:21:10.469Z,89
2024-01-11T06:21:41.774Z,89
2024-01-11T06:22:14.727Z,89
2024-01-11T06:22:46.403Z,89
2024-01-11T06:23:18.708Z,89
2024-01-11T06:23:49.858Z,89
2024-01-11T06:24:22.713Z,88
2024-01-11T06:24:53.752Z,88
2024-01-11T06:25:26.999Z,88
2024-01-11T06:25:57.889Z,88
2024-01-11T06:26:30.559Z,88
2024-01-11T06:27:01.770Z,88
2024-01-11T06:27:34.540Z,88
2024-01-11T06:28:05.873Z,88
2024-01-11T06:28:38.689Z,88
2024-01-11T06:29:09.820Z,88
2024-01-11T06:29:42.899Z,88
2024-01-11T06:30:14.964Z,88
2024-01-11T06:30:46.860Z,88
2024-01-11T06:31:17.819Z,88
2024-01-11T06:31:50.786Z,88
2024-01-11T06:32:21.737Z,88
2024-01-11T06:32:54.791Z,88
2024-01-11T06:33:25.831Z,88
2024-01-11T06:33:58.578Z,88
2024-01-11T06:34:29.788Z,88
2024-01-11T06:35:03.499Z,88
2024-01-11T06:35:33.692Z,88
2024-01-11T06:36:06.455Z,88
2024-01-11T06:36:37.763Z,88
2024-01-11T06:37:12.138Z,88
2024-01-11T06:37:41.729Z,88
2024-01-11T06:38:14.830Z,88
2024-01-11T06:38:45.930Z,88
2024-01-11T06:39:18.785Z,88
2024-01-11T06:39:49.796Z,88
2024-01-11T06:40:22.993Z,88
2024-01-11T06:40:53.830Z,88
2024-01-11T06:41:27.548Z,88
2024-01-11T06:41:57.784Z,88
2024-01-11T06:42:30.905Z,88
2024-01-11T06:43:01.834Z,88
2024-01-11T06:43:34.589Z,88
2024-01-11T06:44:05.801Z,88
2024-01-11T06:44:38.726Z,88
2024-01-11T06:45:11.019Z,88
2024-01-11T06:45:42.824Z,88
2024-01-11T06:46:13.841Z,88
2024-01-11T06:46:47.398Z,88
2024-01-11T06:47:17.926Z,88
2024-01-11T06:47:50.858Z,88
2024-01-11T06:48:22.245Z,88
2024-01-11T06:48:54.498Z,88
2024-01-11T06:49:25.723Z,88
2024-01-11T06:49:58.712Z,88
2024-01-11T06:50:30.217Z,88
2024-01-11T06:51:03.064Z,88
2024-01-11T06:51:33.862Z,88
2024-01-11T06:52:07.659Z,88
2024-01-11T06:52:37.713Z,88
2024-01-11T06:53:11.021Z,88
2024-01-11T06:53:41.894Z,88
2024-01-11T06:54:14.618Z,88
2024-01-11T06:54:45.681Z,88
2024-01-11T06:55:18.922Z,88
2024-01-11T06:55:49.851Z,88
2024-01-11T06:56:22.587Z,88
2024-01-11T06:56:53.979Z,88
2024-01-11T06:57:26.842Z,88
2024-01-11T06:57:57.799Z,88
2024-01-11T06:58:30.571Z,88
2024-01-11T06:59:01.899Z,88
2024-01-11T06:59:34.637Z,88
2024-01-11T07:00:07.585Z,88
2024-01-11T07:00:38.767Z,88
2024-01-11T07:01:09.884Z,88
2024-01-11T07:01:42.652Z,88
2024-01-11T07:02:13.880Z,88
2024-01-11T07:02:47.255Z,88
2024-01-11T07:03:17.820Z,88
2024-01-11T07:03:50.734Z,88
2024-01-11T07:04:21.718Z,88
2024-01-11T07:04:54.739Z,88
2024-01-11T07:05:26.124Z,88
2024-01-11T07:05:58.589Z,88
2024-01-11T07:06:29.735Z,88
2024-01-11T07:07:02.659Z,88
2024-01-11T07:07:33.717Z,88
2024-01-11T07:08:06.996Z,88
2024-01-11T07:08:37.998Z,88
2024-01-11T07:09:10.743Z,88
2024-01-11T07:09:41.700Z,88
2024-01-11T07:10:19.856Z,88
2024-01-11T07:10:46.568Z,88
2024-01-11T07:11:17.795Z,89
2024-01-11T07:11:50.896Z,89
2024-01-11T07:12:22.094Z,89
2024-01-11T07:12:54.979Z,89
2024-01-11T07:13:25.986Z,89
2024-01-11T07:13:58.785Z,89
2024-01-11T07:14:30.191Z,89
2024-01-11T07:15:04.947Z,89
2024-01-11T07:15:34.107Z,89
2024-01-11T07:16:07.390Z,89
2024-01-11T07:16:38.038Z,89
2024-01-11T07:17:10.826Z,89
2024-01-11T07:17:42.070Z,89
2024-01-11T07:18:14.905Z,89
2024-01-11T07:18:46.047Z,89
2024-01-11T07:19:19.014Z,89
2024-01-11T07:19:50.149Z,89
2024-01-11T07:20:23.377Z,89
2024-01-11T07:20:54.042Z,89
2024-01-11T07:21:27.277Z,89
2024-01-11T07:21:58.158Z,89
2024-01-11T07:22:31.097Z,89
2024-01-11T07:23:02.177Z,89
2024-01-11T07:23:34.910Z,89
2024-01-11T07:24:05.916Z,89
2024-01-11T07:24:39.475Z,89
2024-01-11T07:25:10.320Z,89
2024-01-11T07:25:42.762Z,89
2024-01-11T07:26:14.000Z,89
2024-01-11T07:26:46.969Z,89
2024-01-11T07:27:18.043Z,89
2024-01-11T07:27:50.828Z,89
2024-01-11T07:28:22.006Z,89
2024-01-11T07:28:54.831Z,89
2024-01-11T07:29:26.098Z,89
2024-01-11T07:29:58.781Z,89
2024-01-11T07:30:31.324Z,89
2024-01-11T07:31:03.369Z,89
2024-01-11T07:31:33.937Z,89
2024-01-11T07:32:07.010Z,89
2024-01-11T07:32:38.329Z,88
2024-01-11T07:33:11.430Z,88
2024-01-11T07:33:42.170Z,88
2024-01-11T07:33:58.250Z,88
2024-01-11T07:34:30.036Z,88
2024-01-11T07:35:02.427Z,88
2024-01-11T07:35:34.104Z,88
2024-01-11T07:36:05.965Z,88
2024-01-11T07:36:38.907Z,88
2024-01-11T07:37:10.049Z,88